sensor_id;sensor_type;location;lat;lon;timestamp;P1;durP1;ratioP1;P2;durP2;ratioP2
70985;SDS011;58645;43.068;25.610;2023-08-31T00:00:45;36.30;;;20.85;;
70985;SDS011;58645;43.068;25.610;2023-08-31T00:03:11;28.90;;;19.27;;
70985;SDS011;58645;43.068;25.610;2023-08-31T00:05:40;35.78;;;21.23;;
70985;SDS011;58645;43.068;25.610;2023-08-31T00:08:06;35.60;;;21.08;;
70985;SDS011;58645;43.068;25.610;2023-08-31T00:10:33;31.55;;;18.73;;
70985;SDS011;58645;43.068;25.610;2023-08-31T00:13:00;31.27;;;20.25;;
70985;SDS011;58645;43.068;25.610;2023-08-31T00:15:29;32.95;;;19.00;;
70985;SDS011;58645;43.068;25.610;2023-08-31T00:17:58;30.15;;;18.55;;
70985;SDS011;58645;43.068;25.610;2023-08-31T00:20:24;28.95;;;19.00;;
70985;SDS011;58645;43.068;25.610;2023-08-31T00:22:51;33.75;;;19.00;;
70985;SDS011;58645;43.068;25.610;2023-08-31T00:27:43;31.90;;;19.95;;
70985;SDS011;58645;43.068;25.610;2023-08-31T00:30:13;36.47;;;20.88;;
70985;SDS011;58645;43.068;25.610;2023-08-31T00:32:40;35.63;;;21.23;;
70985;SDS011;58645;43.068;25.610;2023-08-31T00:35:10;36.95;;;23.17;;
70985;SDS011;58645;43.068;25.610;2023-08-31T00:37:36;40.53;;;22.90;;
70985;SDS011;58645;43.068;25.610;2023-08-31T00:40:02;33.50;;;19.65;;
70985;SDS011;58645;43.068;25.610;2023-08-31T00:42:29;32.42;;;20.23;;
70985;SDS011;58645;43.068;25.610;2023-08-31T00:44:55;30.52;;;17.85;;
70985;SDS011;58645;43.068;25.610;2023-08-31T00:49:47;32.90;;;19.83;;
70985;SDS011;58645;43.068;25.610;2023-08-31T00:52:14;34.00;;;20.00;;
70985;SDS011;58645;43.068;25.610;2023-08-31T00:54:41;33.85;;;19.75;;
70985;SDS011;58645;43.068;25.610;2023-08-31T00:57:07;34.45;;;20.27;;
70985;SDS011;58645;43.068;25.610;2023-08-31T00:59:33;33.45;;;21.23;;
70985;SDS011;58645;43.068;25.610;2023-08-31T01:02:07;52.80;;;31.13;;
70985;SDS011;58645;43.068;25.610;2023-08-31T01:05:07;62.13;;;31.80;;
70985;SDS011;58645;43.068;25.610;2023-08-31T01:12:53;45.92;;;23.52;;
70985;SDS011;58645;43.068;25.610;2023-08-31T01:15:28;45.78;;;24.02;;
70985;SDS011;58645;43.068;25.610;2023-08-31T01:17:57;39.45;;;22.20;;
70985;SDS011;58645;43.068;25.610;2023-08-31T01:20:31;44.65;;;22.70;;
70985;SDS011;58645;43.068;25.610;2023-08-31T01:23:07;47.08;;;23.83;;
70985;SDS011;58645;43.068;25.610;2023-08-31T01:25:37;42.65;;;24.55;;
70985;SDS011;58645;43.068;25.610;2023-08-31T01:28:03;46.00;;;25.00;;
70985;SDS011;58645;43.068;25.610;2023-08-31T01:30:30;32.58;;;20.00;;
70985;SDS011;58645;43.068;25.610;2023-08-31T01:32:56;36.25;;;19.77;;
70985;SDS011;58645;43.068;25.610;2023-08-31T01:35:22;24.60;;;15.95;;
70985;SDS011;58645;43.068;25.610;2023-08-31T01:37:59;20.75;;;14.55;;
70985;SDS011;58645;43.068;25.610;2023-08-31T01:40:31;22.35;;;14.25;;
70985;SDS011;58645;43.068;25.610;2023-08-31T01:43:05;21.10;;;14.13;;
70985;SDS011;58645;43.068;25.610;2023-08-31T01:45:33;21.92;;;14.68;;
70985;SDS011;58645;43.068;25.610;2023-08-31T01:48:00;21.73;;;16.08;;
70985;SDS011;58645;43.068;25.610;2023-08-31T01:50:26;20.83;;;14.80;;
70985;SDS011;58645;43.068;25.610;2023-08-31T01:52:52;27.98;;;17.40;;
70985;SDS011;58645;43.068;25.610;2023-08-31T01:55:21;27.20;;;15.60;;
70985;SDS011;58645;43.068;25.610;2023-08-31T01:57:47;27.45;;;17.33;;
70985;SDS011;58645;43.068;25.610;2023-08-31T02:00:14;28.73;;;18.70;;
70985;SDS011;58645;43.068;25.610;2023-08-31T02:02:41;38.63;;;20.00;;
70985;SDS011;58645;43.068;25.610;2023-08-31T02:05:07;25.85;;;17.02;;
70985;SDS011;58645;43.068;25.610;2023-08-31T02:07:33;29.80;;;16.90;;
70985;SDS011;58645;43.068;25.610;2023-08-31T02:09:59;31.45;;;19.35;;
70985;SDS011;58645;43.068;25.610;2023-08-31T02:12:25;28.40;;;18.48;;
70985;SDS011;58645;43.068;25.610;2023-08-31T02:14:51;30.05;;;16.42;;
70985;SDS011;58645;43.068;25.610;2023-08-31T02:17:16;25.20;;;17.15;;
70985;SDS011;58645;43.068;25.610;2023-08-31T02:19:42;28.35;;;16.90;;
70985;SDS011;58645;43.068;25.610;2023-08-31T02:22:08;25.45;;;16.50;;
70985;SDS011;58645;43.068;25.610;2023-08-31T02:24:34;23.80;;;16.75;;
70985;SDS011;58645;43.068;25.610;2023-08-31T02:26:59;18.60;;;12.52;;
70985;SDS011;58645;43.068;25.610;2023-08-31T02:29:25;18.98;;;13.40;;
70985;SDS011;58645;43.068;25.610;2023-08-31T02:31:51;22.50;;;15.07;;
70985;SDS011;58645;43.068;25.610;2023-08-31T02:34:17;19.05;;;14.23;;
70985;SDS011;58645;43.068;25.610;2023-08-31T02:36:42;21.45;;;13.32;;
70985;SDS011;58645;43.068;25.610;2023-08-31T02:39:08;22.85;;;13.43;;
70985;SDS011;58645;43.068;25.610;2023-08-31T02:41:34;22.10;;;12.80;;
70985;SDS011;58645;43.068;25.610;2023-08-31T02:44:00;18.52;;;12.35;;
70985;SDS011;58645;43.068;25.610;2023-08-31T02:46:25;20.15;;;12.63;;
70985;SDS011;58645;43.068;25.610;2023-08-31T02:48:51;20.40;;;13.52;;
70985;SDS011;58645;43.068;25.610;2023-08-31T02:51:17;23.75;;;15.38;;
70985;SDS011;58645;43.068;25.610;2023-08-31T02:53:42;29.13;;;16.80;;
70985;SDS011;58645;43.068;25.610;2023-08-31T02:56:08;29.33;;;18.25;;
70985;SDS011;58645;43.068;25.610;2023-08-31T02:58:34;33.10;;;18.00;;
70985;SDS011;58645;43.068;25.610;2023-08-31T03:01:09;31.40;;;18.50;;
70985;SDS011;58645;43.068;25.610;2023-08-31T03:03:39;30.30;;;16.38;;
70985;SDS011;58645;43.068;25.610;2023-08-31T03:06:06;27.30;;;16.88;;
70985;SDS011;58645;43.068;25.610;2023-08-31T03:08:33;25.48;;;16.42;;
70985;SDS011;58645;43.068;25.610;2023-08-31T03:11:00;24.10;;;15.25;;
70985;SDS011;58645;43.068;25.610;2023-08-31T03:13:25;26.20;;;15.43;;
70985;SDS011;58645;43.068;25.610;2023-08-31T03:15:51;30.70;;;16.33;;
70985;SDS011;58645;43.068;25.610;2023-08-31T03:18:17;25.88;;;17.30;;
70985;SDS011;58645;43.068;25.610;2023-08-31T03:20:42;27.48;;;17.02;;
70985;SDS011;58645;43.068;25.610;2023-08-31T03:23:08;27.10;;;17.55;;
70985;SDS011;58645;43.068;25.610;2023-08-31T03:25:36;25.73;;;17.38;;
70985;SDS011;58645;43.068;25.610;2023-08-31T03:28:02;27.15;;;17.98;;
70985;SDS011;58645;43.068;25.610;2023-08-31T03:30:28;28.88;;;18.45;;
70985;SDS011;58645;43.068;25.610;2023-08-31T03:32:54;32.92;;;19.10;;
70985;SDS011;58645;43.068;25.610;2023-08-31T03:35:19;30.15;;;18.75;;
70985;SDS011;58645;43.068;25.610;2023-08-31T03:37:47;27.92;;;18.65;;
70985;SDS011;58645;43.068;25.610;2023-08-31T03:40:13;31.92;;;19.10;;
70985;SDS011;58645;43.068;25.610;2023-08-31T03:42:39;26.27;;;18.35;;
70985;SDS011;58645;43.068;25.610;2023-08-31T03:45:05;28.05;;;16.63;;
70985;SDS011;58645;43.068;25.610;2023-08-31T03:47:31;26.45;;;15.05;;
70985;SDS011;58645;43.068;25.610;2023-08-31T03:49:57;24.85;;;14.82;;
70985;SDS011;58645;43.068;25.610;2023-08-31T03:52:22;22.67;;;15.02;;
70985;SDS011;58645;43.068;25.610;2023-08-31T03:54:48;24.98;;;14.55;;
70985;SDS011;58645;43.068;25.610;2023-08-31T03:57:14;19.90;;;14.50;;
70985;SDS011;58645;43.068;25.610;2023-08-31T03:59:40;23.67;;;14.68;;
70985;SDS011;58645;43.068;25.610;2023-08-31T04:02:06;26.15;;;15.02;;
70985;SDS011;58645;43.068;25.610;2023-08-31T04:04:32;25.35;;;15.32;;
70985;SDS011;58645;43.068;25.610;2023-08-31T04:06:59;24.98;;;14.10;;
70985;SDS011;58645;43.068;25.610;2023-08-31T04:09:25;21.20;;;14.13;;
70985;SDS011;58645;43.068;25.610;2023-08-31T04:11:51;21.13;;;12.98;;
70985;SDS011;58645;43.068;25.610;2023-08-31T04:14:16;20.60;;;13.55;;
70985;SDS011;58645;43.068;25.610;2023-08-31T04:16:43;18.90;;;14.52;;
70985;SDS011;58645;43.068;25.610;2023-08-31T04:19:10;24.52;;;14.55;;
70985;SDS011;58645;43.068;25.610;2023-08-31T04:21:36;20.88;;;11.98;;
70985;SDS011;58645;43.068;25.610;2023-08-31T04:24:03;18.85;;;13.27;;
70985;SDS011;58645;43.068;25.610;2023-08-31T04:26:29;20.08;;;13.48;;
70985;SDS011;58645;43.068;25.610;2023-08-31T04:28:54;17.58;;;12.60;;
70985;SDS011;58645;43.068;25.610;2023-08-31T04:31:21;21.83;;;13.35;;
70985;SDS011;58645;43.068;25.610;2023-08-31T04:33:47;21.17;;;12.38;;
70985;SDS011;58645;43.068;25.610;2023-08-31T04:36:13;17.00;;;12.27;;
70985;SDS011;58645;43.068;25.610;2023-08-31T04:38:39;20.98;;;12.18;;
70985;SDS011;58645;43.068;25.610;2023-08-31T04:41:04;17.67;;;12.13;;
70985;SDS011;58645;43.068;25.610;2023-08-31T04:43:30;18.50;;;12.15;;
70985;SDS011;58645;43.068;25.610;2023-08-31T04:45:56;17.23;;;12.82;;
70985;SDS011;58645;43.068;25.610;2023-08-31T04:48:22;19.25;;;13.27;;
70985;SDS011;58645;43.068;25.610;2023-08-31T04:50:48;16.98;;;12.38;;
70985;SDS011;58645;43.068;25.610;2023-08-31T04:53:15;20.10;;;12.38;;
70985;SDS011;58645;43.068;25.610;2023-08-31T04:55:40;15.98;;;11.85;;
70985;SDS011;58645;43.068;25.610;2023-08-31T04:58:06;17.02;;;10.75;;
70985;SDS011;58645;43.068;25.610;2023-08-31T05:00:32;19.95;;;11.73;;
70985;SDS011;58645;43.068;25.610;2023-08-31T05:02:57;23.77;;;13.32;;
70985;SDS011;58645;43.068;25.610;2023-08-31T05:05:23;16.40;;;12.45;;
70985;SDS011;58645;43.068;25.610;2023-08-31T05:07:49;22.20;;;13.45;;
70985;SDS011;58645;43.068;25.610;2023-08-31T05:10:15;14.75;;;10.18;;
70985;SDS011;58645;43.068;25.610;2023-08-31T05:12:41;15.43;;;10.43;;
70985;SDS011;58645;43.068;25.610;2023-08-31T05:15:07;15.75;;;11.25;;
70985;SDS011;58645;43.068;25.610;2023-08-31T05:17:34;16.52;;;11.43;;
70985;SDS011;58645;43.068;25.610;2023-08-31T05:20:00;17.98;;;11.18;;
70985;SDS011;58645;43.068;25.610;2023-08-31T05:24:52;26.00;;;15.93;;
70985;SDS011;58645;43.068;25.610;2023-08-31T05:27:17;27.17;;;15.38;;
70985;SDS011;58645;43.068;25.610;2023-08-31T05:29:43;39.78;;;20.83;;
70985;SDS011;58645;43.068;25.610;2023-08-31T05:34:34;26.88;;;15.73;;
70985;SDS011;58645;43.068;25.610;2023-08-31T05:37:04;29.02;;;15.93;;
70985;SDS011;58645;43.068;25.610;2023-08-31T05:39:30;29.70;;;15.77;;
70985;SDS011;58645;43.068;25.610;2023-08-31T05:44:21;28.52;;;17.33;;
70985;SDS011;58645;43.068;25.610;2023-08-31T05:49:13;20.77;;;13.60;;
70985;SDS011;58645;43.068;25.610;2023-08-31T05:51:39;23.58;;;14.45;;
70985;SDS011;58645;43.068;25.610;2023-08-31T05:56:35;17.63;;;11.98;;
70985;SDS011;58645;43.068;25.610;2023-08-31T05:59:01;15.20;;;11.30;;
70985;SDS011;58645;43.068;25.610;2023-08-31T06:01:27;15.55;;;10.25;;
70985;SDS011;58645;43.068;25.610;2023-08-31T06:03:52;13.82;;;9.88;;
70985;SDS011;58645;43.068;25.610;2023-08-31T06:09:22;11.32;;;10.02;;
70985;SDS011;58645;43.068;25.610;2023-08-31T06:11:48;13.98;;;9.90;;
70985;SDS011;58645;43.068;25.610;2023-08-31T06:14:13;13.20;;;9.20;;
70985;SDS011;58645;43.068;25.610;2023-08-31T06:16:39;15.90;;;9.73;;
70985;SDS011;58645;43.068;25.610;2023-08-31T06:19:05;11.25;;;8.13;;
70985;SDS011;58645;43.068;25.610;2023-08-31T06:21:30;12.10;;;9.40;;
70985;SDS011;58645;43.068;25.610;2023-08-31T06:23:56;13.85;;;8.32;;
70985;SDS011;58645;43.068;25.610;2023-08-31T06:26:22;13.57;;;8.98;;
70985;SDS011;58645;43.068;25.610;2023-08-31T06:28:47;12.20;;;9.15;;
70985;SDS011;58645;43.068;25.610;2023-08-31T06:31:13;12.25;;;7.80;;
70985;SDS011;58645;43.068;25.610;2023-08-31T06:33:39;10.00;;;8.57;;
70985;SDS011;58645;43.068;25.610;2023-08-31T06:36:04;10.13;;;7.22;;
70985;SDS011;58645;43.068;25.610;2023-08-31T06:38:31;10.20;;;7.70;;
70985;SDS011;58645;43.068;25.610;2023-08-31T06:40:56;11.80;;;8.32;;
70985;SDS011;58645;43.068;25.610;2023-08-31T06:43:24;12.10;;;8.80;;
70985;SDS011;58645;43.068;25.610;2023-08-31T06:45:52;12.68;;;7.47;;
70985;SDS011;58645;43.068;25.610;2023-08-31T06:48:18;10.18;;;7.75;;
70985;SDS011;58645;43.068;25.610;2023-08-31T06:50:44;10.57;;;7.88;;
70985;SDS011;58645;43.068;25.610;2023-08-31T06:53:09;9.77;;;7.78;;
70985;SDS011;58645;43.068;25.610;2023-08-31T06:55:35;9.25;;;8.25;;
70985;SDS011;58645;43.068;25.610;2023-08-31T06:58:01;10.25;;;8.30;;
70985;SDS011;58645;43.068;25.610;2023-08-31T07:00:29;9.82;;;8.63;;
70985;SDS011;58645;43.068;25.610;2023-08-31T07:03:00;9.27;;;7.22;;
70985;SDS011;58645;43.068;25.610;2023-08-31T07:05:32;11.82;;;7.40;;
70985;SDS011;58645;43.068;25.610;2023-08-31T07:08:00;9.27;;;7.10;;
70985;SDS011;58645;43.068;25.610;2023-08-31T07:10:27;10.88;;;7.38;;
70985;SDS011;58645;43.068;25.610;2023-08-31T07:12:53;9.52;;;7.85;;
70985;SDS011;58645;43.068;25.610;2023-08-31T07:15:19;10.13;;;7.95;;
70985;SDS011;58645;43.068;25.610;2023-08-31T07:17:44;12.02;;;7.88;;
70985;SDS011;58645;43.068;25.610;2023-08-31T07:20:11;13.45;;;8.10;;
70985;SDS011;58645;43.068;25.610;2023-08-31T07:22:37;10.70;;;7.28;;
70985;SDS011;58645;43.068;25.610;2023-08-31T07:25:05;11.57;;;7.78;;
70985;SDS011;58645;43.068;25.610;2023-08-31T07:27:32;11.55;;;9.27;;
70985;SDS011;58645;43.068;25.610;2023-08-31T07:29:58;10.63;;;7.32;;
70985;SDS011;58645;43.068;25.610;2023-08-31T07:32:23;11.60;;;8.70;;
70985;SDS011;58645;43.068;25.610;2023-08-31T07:34:49;9.07;;;7.95;;
70985;SDS011;58645;43.068;25.610;2023-08-31T07:37:15;8.93;;;7.15;;
70985;SDS011;58645;43.068;25.610;2023-08-31T07:39:40;8.15;;;6.35;;
70985;SDS011;58645;43.068;25.610;2023-08-31T07:42:06;11.18;;;5.60;;
70985;SDS011;58645;43.068;25.610;2023-08-31T07:44:32;8.27;;;5.25;;
70985;SDS011;58645;43.068;25.610;2023-08-31T07:46:57;8.10;;;5.40;;
70985;SDS011;58645;43.068;25.610;2023-08-31T07:49:23;7.57;;;4.97;;
70985;SDS011;58645;43.068;25.610;2023-08-31T07:51:49;7.90;;;4.78;;
70985;SDS011;58645;43.068;25.610;2023-08-31T07:54:21;9.82;;;4.88;;
70985;SDS011;58645;43.068;25.610;2023-08-31T07:56:48;5.80;;;4.10;;
70985;SDS011;58645;43.068;25.610;2023-08-31T07:59:15;7.30;;;3.83;;
70985;SDS011;58645;43.068;25.610;2023-08-31T08:01:42;5.60;;;4.00;;
70985;SDS011;58645;43.068;25.610;2023-08-31T08:04:08;6.05;;;4.15;;
70985;SDS011;58645;43.068;25.610;2023-08-31T08:06:33;6.32;;;4.15;;
70985;SDS011;58645;43.068;25.610;2023-08-31T08:08:59;5.57;;;3.75;;
70985;SDS011;58645;43.068;25.610;2023-08-31T08:11:25;5.80;;;3.40;;
70985;SDS011;58645;43.068;25.610;2023-08-31T08:13:50;5.93;;;4.03;;
70985;SDS011;58645;43.068;25.610;2023-08-31T08:16:16;6.30;;;4.10;;
70985;SDS011;58645;43.068;25.610;2023-08-31T08:18:42;5.97;;;4.22;;
70985;SDS011;58645;43.068;25.610;2023-08-31T08:21:07;5.45;;;3.38;;
70985;SDS011;58645;43.068;25.610;2023-08-31T08:23:33;5.90;;;2.92;;
70985;SDS011;58645;43.068;25.610;2023-08-31T08:25:59;5.00;;;3.00;;
70985;SDS011;58645;43.068;25.610;2023-08-31T08:28:25;6.20;;;3.03;;
70985;SDS011;58645;43.068;25.610;2023-08-31T08:30:51;6.25;;;2.95;;
70985;SDS011;58645;43.068;25.610;2023-08-31T08:33:17;5.32;;;2.85;;
70985;SDS011;58645;43.068;25.610;2023-08-31T08:35:42;6.15;;;3.45;;
70985;SDS011;58645;43.068;25.610;2023-08-31T08:38:08;5.95;;;2.72;;
70985;SDS011;58645;43.068;25.610;2023-08-31T08:40:34;6.05;;;2.40;;
70985;SDS011;58645;43.068;25.610;2023-08-31T08:43:00;8.93;;;3.60;;
70985;SDS011;58645;43.068;25.610;2023-08-31T08:45:29;4.60;;;2.72;;
70985;SDS011;58645;43.068;25.610;2023-08-31T08:47:58;5.57;;;3.20;;
70985;SDS011;58645;43.068;25.610;2023-08-31T08:50:24;7.22;;;2.80;;
70985;SDS011;58645;43.068;25.610;2023-08-31T08:52:49;4.30;;;2.65;;
70985;SDS011;58645;43.068;25.610;2023-08-31T08:55:16;5.53;;;2.60;;
70985;SDS011;58645;43.068;25.610;2023-08-31T08:57:42;5.32;;;2.90;;
70985;SDS011;58645;43.068;25.610;2023-08-31T09:00:08;5.40;;;2.90;;
70985;SDS011;58645;43.068;25.610;2023-08-31T09:02:34;4.55;;;2.88;;
70985;SDS011;58645;43.068;25.610;2023-08-31T09:05:00;4.40;;;2.65;;
70985;SDS011;58645;43.068;25.610;2023-08-31T09:07:27;4.18;;;2.75;;
70985;SDS011;58645;43.068;25.610;2023-08-31T09:09:55;5.05;;;3.08;;
70985;SDS011;58645;43.068;25.610;2023-08-31T09:12:21;4.60;;;2.22;;
70985;SDS011;58645;43.068;25.610;2023-08-31T09:17:42;4.43;;;2.42;;
70985;SDS011;58645;43.068;25.610;2023-08-31T09:20:11;3.72;;;1.92;;
70985;SDS011;58645;43.068;25.610;2023-08-31T09:22:36;5.53;;;2.55;;
70985;SDS011;58645;43.068;25.610;2023-08-31T09:25:10;5.15;;;2.42;;
70985;SDS011;58645;43.068;25.610;2023-08-31T09:27:38;3.80;;;2.10;;
70985;SDS011;58645;43.068;25.610;2023-08-31T09:30:06;3.78;;;2.33;;
70985;SDS011;58645;43.068;25.610;2023-08-31T09:32:32;4.93;;;2.88;;
70985;SDS011;58645;43.068;25.610;2023-08-31T09:34:58;4.82;;;2.42;;
70985;SDS011;58645;43.068;25.610;2023-08-31T09:37:28;5.00;;;2.72;;
70985;SDS011;58645;43.068;25.610;2023-08-31T09:39:53;3.72;;;2.70;;
70985;SDS011;58645;43.068;25.610;2023-08-31T09:42:19;4.45;;;2.53;;
70985;SDS011;58645;43.068;25.610;2023-08-31T09:44:45;4.53;;;2.40;;
70985;SDS011;58645;43.068;25.610;2023-08-31T09:47:15;5.20;;;2.67;;
70985;SDS011;58645;43.068;25.610;2023-08-31T09:49:43;3.97;;;2.55;;
70985;SDS011;58645;43.068;25.610;2023-08-31T09:52:09;4.00;;;2.58;;
70985;SDS011;58645;43.068;25.610;2023-08-31T09:54:37;5.60;;;2.67;;
70985;SDS011;58645;43.068;25.610;2023-08-31T09:57:04;3.72;;;2.78;;
70985;SDS011;58645;43.068;25.610;2023-08-31T09:59:30;4.35;;;3.03;;
70985;SDS011;58645;43.068;25.610;2023-08-31T10:01:56;5.28;;;2.72;;
70985;SDS011;58645;43.068;25.610;2023-08-31T10:04:23;4.43;;;2.45;;
70985;SDS011;58645;43.068;25.610;2023-08-31T10:06:49;4.55;;;2.53;;
70985;SDS011;58645;43.068;25.610;2023-08-31T10:09:16;5.32;;;2.53;;
70985;SDS011;58645;43.068;25.610;2023-08-31T10:11:42;6.13;;;2.80;;
70985;SDS011;58645;43.068;25.610;2023-08-31T10:14:08;4.57;;;2.92;;
70985;SDS011;58645;43.068;25.610;2023-08-31T10:16:35;5.28;;;2.58;;
70985;SDS011;58645;43.068;25.610;2023-08-31T10:19:04;3.65;;;2.67;;
70985;SDS011;58645;43.068;25.610;2023-08-31T10:21:29;5.57;;;2.83;;
70985;SDS011;58645;43.068;25.610;2023-08-31T10:23:55;3.53;;;2.35;;
70985;SDS011;58645;43.068;25.610;2023-08-31T10:26:25;4.30;;;2.67;;
70985;SDS011;58645;43.068;25.610;2023-08-31T10:28:55;4.45;;;2.42;;
70985;SDS011;58645;43.068;25.610;2023-08-31T10:31:22;3.40;;;2.33;;
70985;SDS011;58645;43.068;25.610;2023-08-31T10:33:55;4.13;;;2.65;;
70985;SDS011;58645;43.068;25.610;2023-08-31T10:39:01;4.93;;;2.67;;
70985;SDS011;58645;43.068;25.610;2023-08-31T10:41:36;5.00;;;2.60;;
70985;SDS011;58645;43.068;25.610;2023-08-31T10:44:02;5.22;;;2.70;;
70985;SDS011;58645;43.068;25.610;2023-08-31T10:46:46;4.65;;;2.28;;
70985;SDS011;58645;43.068;25.610;2023-08-31T10:49:13;4.15;;;2.70;;
70985;SDS011;58645;43.068;25.610;2023-08-31T10:51:41;5.70;;;2.45;;
70985;SDS011;58645;43.068;25.610;2023-08-31T10:54:11;5.25;;;2.60;;
70985;SDS011;58645;43.068;25.610;2023-08-31T11:02:08;4.68;;;2.58;;
70985;SDS011;58645;43.068;25.610;2023-08-31T11:04:53;5.90;;;3.00;;
70985;SDS011;58645;43.068;25.610;2023-08-31T11:07:46;4.95;;;3.30;;
70985;SDS011;58645;43.068;25.610;2023-08-31T11:12:45;3.67;;;2.13;;
70985;SDS011;58645;43.068;25.610;2023-08-31T11:15:21;4.55;;;2.97;;
70985;SDS011;58645;43.068;25.610;2023-08-31T11:17:52;5.40;;;2.88;;
70985;SDS011;58645;43.068;25.610;2023-08-31T11:20:20;4.53;;;2.78;;
70985;SDS011;58645;43.068;25.610;2023-08-31T11:22:47;10.43;;;2.67;;
70985;SDS011;58645;43.068;25.610;2023-08-31T11:25:20;6.20;;;3.17;;
70985;SDS011;58645;43.068;25.610;2023-08-31T11:27:55;5.13;;;2.90;;
70985;SDS011;58645;43.068;25.610;2023-08-31T11:30:22;6.00;;;3.05;;
70985;SDS011;58645;43.068;25.610;2023-08-31T11:32:51;7.07;;;2.55;;
70985;SDS011;58645;43.068;25.610;2023-08-31T11:35:18;7.28;;;3.70;;
70985;SDS011;58645;43.068;25.610;2023-08-31T11:37:45;5.30;;;2.55;;
70985;SDS011;58645;43.068;25.610;2023-08-31T11:40:14;4.78;;;2.83;;
70985;SDS011;58645;43.068;25.610;2023-08-31T11:42:40;6.93;;;3.63;;
70985;SDS011;58645;43.068;25.610;2023-08-31T11:45:06;4.65;;;3.40;;
70985;SDS011;58645;43.068;25.610;2023-08-31T11:47:33;5.47;;;2.80;;
70985;SDS011;58645;43.068;25.610;2023-08-31T11:49:59;5.88;;;3.90;;
70985;SDS011;58645;43.068;25.610;2023-08-31T11:52:28;7.38;;;3.90;;
70985;SDS011;58645;43.068;25.610;2023-08-31T11:54:55;5.60;;;2.88;;
70985;SDS011;58645;43.068;25.610;2023-08-31T11:57:24;6.60;;;3.03;;
70985;SDS011;58645;43.068;25.610;2023-08-31T11:59:51;5.60;;;2.83;;
70985;SDS011;58645;43.068;25.610;2023-08-31T12:02:18;6.63;;;3.25;;
70985;SDS011;58645;43.068;25.610;2023-08-31T12:04:45;6.78;;;3.67;;
70985;SDS011;58645;43.068;25.610;2023-08-31T12:07:12;8.18;;;3.50;;
70985;SDS011;58645;43.068;25.610;2023-08-31T12:09:41;8.77;;;4.30;;
70985;SDS011;58645;43.068;25.610;2023-08-31T12:12:09;5.55;;;3.40;;
70985;SDS011;58645;43.068;25.610;2023-08-31T12:14:37;6.57;;;3.47;;
70985;SDS011;58645;43.068;25.610;2023-08-31T12:17:06;6.22;;;3.22;;
70985;SDS011;58645;43.068;25.610;2023-08-31T12:19:35;13.25;;;5.93;;
70985;SDS011;58645;43.068;25.610;2023-08-31T12:22:02;26.10;;;15.65;;
70985;SDS011;58645;43.068;25.610;2023-08-31T12:24:29;24.98;;;13.30;;
70985;SDS011;58645;43.068;25.610;2023-08-31T12:27:01;11.30;;;6.80;;
70985;SDS011;58645;43.068;25.610;2023-08-31T12:29:27;9.48;;;5.47;;
70985;SDS011;58645;43.068;25.610;2023-08-31T12:31:53;11.30;;;5.75;;
70985;SDS011;58645;43.068;25.610;2023-08-31T12:34:19;9.20;;;5.45;;
70985;SDS011;58645;43.068;25.610;2023-08-31T12:36:44;11.80;;;6.55;;
70985;SDS011;58645;43.068;25.610;2023-08-31T12:39:10;14.05;;;7.65;;
70985;SDS011;58645;43.068;25.610;2023-08-31T12:41:37;9.25;;;6.22;;
70985;SDS011;58645;43.068;25.610;2023-08-31T12:44:03;9.50;;;6.57;;
70985;SDS011;58645;43.068;25.610;2023-08-31T12:46:30;8.55;;;4.82;;
70985;SDS011;58645;43.068;25.610;2023-08-31T12:48:56;5.38;;;3.78;;
70985;SDS011;58645;43.068;25.610;2023-08-31T12:51:22;8.68;;;5.05;;
70985;SDS011;58645;43.068;25.610;2023-08-31T12:53:48;9.38;;;5.40;;
70985;SDS011;58645;43.068;25.610;2023-08-31T12:56:14;7.22;;;5.57;;
70985;SDS011;58645;43.068;25.610;2023-08-31T12:58:46;9.68;;;5.40;;
70985;SDS011;58645;43.068;25.610;2023-08-31T13:01:19;8.75;;;5.63;;
70985;SDS011;58645;43.068;25.610;2023-08-31T13:03:46;9.27;;;4.00;;
70985;SDS011;58645;43.068;25.610;2023-08-31T13:06:12;5.38;;;3.42;;
70985;SDS011;58645;43.068;25.610;2023-08-31T13:08:39;6.93;;;4.20;;
70985;SDS011;58645;43.068;25.610;2023-08-31T13:11:05;6.20;;;3.50;;
70985;SDS011;58645;43.068;25.610;2023-08-31T13:13:31;4.78;;;3.00;;
70985;SDS011;58645;43.068;25.610;2023-08-31T13:15:57;4.93;;;3.13;;
70985;SDS011;58645;43.068;25.610;2023-08-31T13:18:23;5.57;;;3.30;;
70985;SDS011;58645;43.068;25.610;2023-08-31T13:20:50;6.63;;;3.80;;
70985;SDS011;58645;43.068;25.610;2023-08-31T13:23:19;6.35;;;3.45;;
70985;SDS011;58645;43.068;25.610;2023-08-31T13:25:45;9.15;;;7.28;;
70985;SDS011;58645;43.068;25.610;2023-08-31T13:28:11;13.63;;;8.18;;
70985;SDS011;58645;43.068;25.610;2023-08-31T13:30:37;7.45;;;4.22;;
70985;SDS011;58645;43.068;25.610;2023-08-31T13:33:03;7.82;;;4.60;;
70985;SDS011;58645;43.068;25.610;2023-08-31T13:35:29;6.45;;;4.75;;
70985;SDS011;58645;43.068;25.610;2023-08-31T13:37:56;6.47;;;4.93;;
70985;SDS011;58645;43.068;25.610;2023-08-31T13:40:22;8.88;;;4.90;;
70985;SDS011;58645;43.068;25.610;2023-08-31T13:42:57;7.80;;;4.40;;
70985;SDS011;58645;43.068;25.610;2023-08-31T13:45:28;7.25;;;4.53;;
70985;SDS011;58645;43.068;25.610;2023-08-31T13:47:54;8.48;;;3.45;;
70985;SDS011;58645;43.068;25.610;2023-08-31T13:50:20;8.82;;;3.38;;
70985;SDS011;58645;43.068;25.610;2023-08-31T13:52:46;5.38;;;3.13;;
70985;SDS011;58645;43.068;25.610;2023-08-31T13:55:12;7.68;;;3.60;;
70985;SDS011;58645;43.068;25.610;2023-08-31T13:57:38;10.18;;;3.70;;
70985;SDS011;58645;43.068;25.610;2023-08-31T14:00:06;8.73;;;4.32;;
70985;SDS011;58645;43.068;25.610;2023-08-31T14:02:34;14.15;;;7.57;;
70985;SDS011;58645;43.068;25.610;2023-08-31T14:05:04;17.63;;;7.78;;
70985;SDS011;58645;43.068;25.610;2023-08-31T14:07:31;16.65;;;9.57;;
70985;SDS011;58645;43.068;25.610;2023-08-31T14:09:57;20.35;;;10.32;;
70985;SDS011;58645;43.068;25.610;2023-08-31T14:12:23;21.48;;;9.43;;
70985;SDS011;58645;43.068;25.610;2023-08-31T14:14:50;16.52;;;9.05;;
70985;SDS011;58645;43.068;25.610;2023-08-31T14:17:17;16.27;;;8.60;;
70985;SDS011;58645;43.068;25.610;2023-08-31T14:19:42;16.95;;;9.63;;
70985;SDS011;58645;43.068;25.610;2023-08-31T14:22:08;15.15;;;9.27;;
70985;SDS011;58645;43.068;25.610;2023-08-31T14:24:35;12.25;;;6.10;;
70985;SDS011;58645;43.068;25.610;2023-08-31T14:27:02;15.75;;;7.15;;
70985;SDS011;58645;43.068;25.610;2023-08-31T14:29:28;12.52;;;7.38;;
70985;SDS011;58645;43.068;25.610;2023-08-31T14:31:54;9.63;;;6.07;;
70985;SDS011;58645;43.068;25.610;2023-08-31T14:34:20;7.70;;;4.72;;
70985;SDS011;58645;43.068;25.610;2023-08-31T14:36:46;9.20;;;5.63;;
70985;SDS011;58645;43.068;25.610;2023-08-31T14:39:12;7.57;;;4.00;;
70985;SDS011;58645;43.068;25.610;2023-08-31T14:41:40;7.20;;;3.47;;
70985;SDS011;58645;43.068;25.610;2023-08-31T14:44:05;7.07;;;3.88;;
70985;SDS011;58645;43.068;25.610;2023-08-31T14:46:31;6.85;;;3.95;;
70985;SDS011;58645;43.068;25.610;2023-08-31T14:48:57;7.55;;;3.13;;
70985;SDS011;58645;43.068;25.610;2023-08-31T14:53:49;13.85;;;7.35;;
70985;SDS011;58645;43.068;25.610;2023-08-31T14:56:15;15.00;;;6.35;;
70985;SDS011;58645;43.068;25.610;2023-08-31T15:01:06;9.57;;;5.07;;
70985;SDS011;58645;43.068;25.610;2023-08-31T15:03:32;9.13;;;5.22;;